createdAt,value
2018-09-12T00:02:13.274Z,17.40
2018-09-12T00:04:41.769Z,17.40
2018-09-12T00:07:10.081Z,17.40
2018-09-12T00:09:38.521Z,17.80
2018-09-12T00:12:06.832Z,17.90
2018-09-12T00:14:35.341Z,18.00
2018-09-12T00:17:03.751Z,17.70
2018-09-12T00:19:32.070Z,17.50
2018-09-12T00:22:00.437Z,17.60
2018-09-12T00:24:28.746Z,17.40
2018-09-12T00:26:57.157Z,17.30
2018-09-12T00:29:25.491Z,17.40
2018-09-12T00:31:54.180Z,17.40
2018-09-12T00:34:22.525Z,17.40
2018-09-12T00:36:50.838Z,17.20
2018-09-12T00:39:19.360Z,17.30
2018-09-12T00:41:47.934Z,17.30
2018-09-12T00:44:16.419Z,17.40
2018-09-12T00:46:44.811Z,17.30
2018-09-12T00:49:13.306Z,17.30
2018-09-12T00:51:41.913Z,17.20
2018-09-12T00:54:10.411Z,17.10
2018-09-12T00:56:38.933Z,17.00
2018-09-12T00:59:07.407Z,16.90
2018-09-12T01:01:35.831Z,16.90
2018-09-12T01:04:04.140Z,16.90
2018-09-12T01:06:32.862Z,16.90
2018-09-12T01:09:01.334Z,17.00
2018-09-12T01:11:29.853Z,16.90
2018-09-12T01:13:58.206Z,16.80
2018-09-12T01:16:26.713Z,16.90
2018-09-12T01:18:55.134Z,16.90
2018-09-12T01:21:23.548Z,16.80
2018-09-12T01:23:51.877Z,16.80
2018-09-12T01:26:20.229Z,16.80
2018-09-12T01:28:48.801Z,16.90
2018-09-12T01:31:17.128Z,16.90
2018-09-12T01:33:45.470Z,16.80
2018-09-12T01:36:13.814Z,16.80
2018-09-12T01:38:42.155Z,16.80
2018-09-12T01:41:10.622Z,16.70
2018-09-12T01:43:38.989Z,16.70
2018-09-12T01:46:07.329Z,16.70
2018-09-12T01:48:35.921Z,16.60
2018-09-12T01:51:04.369Z,16.60
2018-09-12T01:53:32.690Z,16.50
2018-09-12T01:56:01.201Z,16.50
2018-09-12T01:58:29.557Z,16.50
2018-09-12T02:00:57.956Z,16.40
2018-09-12T02:03:26.413Z,16.40
2018-09-12T02:05:55.081Z,16.30
2018-09-12T02:08:23.457Z,16.30
2018-09-12T02:10:51.879Z,16.40
2018-09-12T02:13:20.197Z,16.40
2018-09-12T02:15:50.994Z,16.50
2018-09-12T02:18:19.353Z,16.70
2018-09-12T02:20:47.742Z,16.80
2018-09-12T02:23:16.117Z,16.90
2018-09-12T02:25:44.557Z,16.90
2018-09-12T02:28:12.893Z,16.60
2018-09-12T02:30:41.269Z,16.30
2018-09-12T02:33:09.603Z,16.20
2018-09-12T02:35:44.049Z,16.20
2018-09-12T02:38:12.392Z,16.10
2018-09-12T02:40:40.821Z,16.10
2018-09-12T02:43:09.411Z,16.00
2018-09-12T02:45:37.744Z,16.10
2018-09-12T02:48:06.308Z,16.30
2018-09-12T02:50:34.698Z,16.40
2018-09-12T02:53:03.139Z,16.30
2018-09-12T02:55:31.476Z,16.20
2018-09-12T02:57:59.863Z,16.10
2018-09-12T03:00:28.185Z,16.00
2018-09-12T03:02:56.609Z,16.10
2018-09-12T03:05:25.054Z,16.20
2018-09-12T03:07:53.571Z,16.20
2018-09-12T03:10:21.834Z,16.00
2018-09-12T03:12:50.215Z,16.00
2018-09-12T03:15:18.590Z,15.90
2018-09-12T03:17:46.918Z,15.80
2018-09-12T03:20:15.242Z,15.80
2018-09-12T03:22:43.793Z,15.80
2018-09-12T03:25:12.141Z,15.90
2018-09-12T03:27:40.570Z,15.70
2018-09-12T03:30:08.974Z,15.60
2018-09-12T03:32:37.326Z,15.60
2018-09-12T03:35:06.217Z,15.70
2018-09-12T03:37:34.786Z,15.70
2018-09-12T03:40:03.267Z,15.60
2018-09-12T03:42:31.657Z,15.70
2018-09-12T03:45:00.163Z,15.60
2018-09-12T03:47:28.667Z,15.50
2018-09-12T03:49:57.028Z,15.50
2018-09-12T03:52:25.538Z,15.40
2018-09-12T03:54:53.873Z,15.40
2018-09-12T03:57:22.218Z,15.40
2018-09-12T03:59:50.550Z,15.40
2018-09-12T04:02:18.973Z,15.30
2018-09-12T04:04:47.538Z,15.30
2018-09-12T04:07:16.034Z,15.20
2018-09-12T04:09:44.514Z,15.20
2018-09-12T04:12:13.022Z,15.10
2018-09-12T04:14:41.375Z,15.10
2018-09-12T04:17:09.821Z,15.20
2018-09-12T04:19:38.222Z,15.20
2018-09-12T04:22:07.016Z,15.20
2018-09-12T04:24:35.350Z,15.10
2018-09-12T04:27:03.836Z,15.10
2018-09-12T04:29:32.257Z,15.10
2018-09-12T04:32:01.693Z,15.30
2018-09-12T04:34:30.033Z,15.30
2018-09-12T04:36:58.442Z,15.20
2018-09-12T04:39:26.738Z,15.10
2018-09-12T04:41:55.114Z,15.10
2018-09-12T04:44:23.664Z,15.00
2018-09-12T04:46:52.025Z,14.90
2018-09-12T04:49:20.525Z,14.90
2018-09-12T04:51:48.833Z,14.90
2018-09-12T04:54:17.385Z,14.90
2018-09-12T04:56:45.833Z,14.90
2018-09-12T04:59:14.392Z,15.00
2018-09-12T05:01:42.816Z,14.90
2018-09-12T05:04:11.249Z,15.00
2018-09-12T05:06:39.582Z,15.00
2018-09-12T05:09:09.755Z,15.00
2018-09-12T05:11:38.270Z,15.00
2018-09-12T05:14:06.770Z,15.00
2018-09-12T05:16:35.229Z,15.00
2018-09-12T05:19:03.573Z,15.10
2018-09-12T05:21:31.952Z,15.10
2018-09-12T05:24:00.330Z,15.00
2018-09-12T05:26:28.693Z,15.00
2018-09-12T05:28:57.093Z,15.00
2018-09-12T05:31:25.433Z,15.00
2018-09-12T05:33:54.046Z,15.00
2018-09-12T05:36:22.584Z,15.00
2018-09-12T05:38:50.849Z,15.10
2018-09-12T05:41:19.277Z,15.10
2018-09-12T05:43:47.809Z,15.20
2018-09-12T05:46:16.291Z,15.30
2018-09-12T05:48:44.743Z,15.30
2018-09-12T05:51:13.219Z,15.30
2018-09-12T05:53:41.572Z,15.40
2018-09-12T05:56:10.177Z,15.40
2018-09-12T05:58:38.487Z,15.50
2018-09-12T06:01:06.862Z,15.50
2018-09-12T06:03:35.250Z,15.60
2018-09-12T06:06:03.686Z,15.70
2018-09-12T06:08:34.754Z,15.80
2018-09-12T06:11:03.268Z,15.90
2018-09-12T06:13:31.732Z,16.00
2018-09-12T06:16:00.150Z,16.10
2018-09-12T06:18:28.558Z,16.30
2018-09-12T06:20:56.989Z,16.60
2018-09-12T06:23:25.334Z,16.60
2018-09-12T06:25:54.977Z,16.70
2018-09-12T06:28:23.294Z,16.70
2018-09-12T06:30:51.926Z,16.70
2018-09-12T06:33:20.357Z,16.70
2018-09-12T06:35:48.805Z,16.70
2018-09-12T06:38:17.248Z,17.20
2018-09-12T06:40:45.718Z,17.40
2018-09-12T06:43:14.151Z,17.90
2018-09-12T06:45:42.467Z,18.50
2018-09-12T06:48:10.855Z,19.80
2018-09-12T06:50:39.283Z,20.80
2018-09-12T06:53:07.655Z,21.70
2018-09-12T06:55:36.217Z,21.60
2018-09-12T06:58:04.554Z,22.40
2018-09-12T07:00:33.034Z,22.40
2018-09-12T07:03:01.426Z,22.10
2018-09-12T07:05:29.903Z,22.40
2018-09-12T07:07:58.230Z,23.50
2018-09-12T07:10:26.778Z,24.10
2018-09-12T07:12:55.445Z,24.50
2018-09-12T07:15:23.813Z,24.00
2018-09-12T07:17:52.597Z,23.20
2018-09-12T07:20:20.935Z,23.40
2018-09-12T07:22:49.238Z,22.10
2018-09-12T07:25:17.808Z,22.20
2018-09-12T07:27:46.305Z,22.60
2018-09-12T07:30:14.665Z,23.00
2018-09-12T07:32:43.141Z,22.00
2018-09-12T07:35:18.174Z,21.60
2018-09-12T07:37:46.690Z,21.50
2018-09-12T07:40:15.013Z,21.30
2018-09-12T07:42:43.369Z,21.70
2018-09-12T07:45:12.031Z,22.00
2018-09-12T07:47:40.495Z,22.20
2018-09-12T07:50:08.834Z,22.20
2018-09-12T07:52:37.397Z,22.60
2018-09-12T07:55:06.455Z,21.90
2018-09-12T07:57:35.784Z,22.10
2018-09-12T08:00:04.541Z,22.00
2018-09-12T08:02:32.983Z,21.70
2018-09-12T08:05:08.330Z,22.60
2018-09-12T08:07:36.701Z,22.90
2018-09-12T08:10:05.817Z,23.10
2018-09-12T08:12:34.174Z,23.70
2018-09-12T08:15:02.577Z,24.80
2018-09-12T08:17:30.980Z,24.10
2018-09-12T08:19:59.359Z,23.50
2018-09-12T08:22:27.818Z,23.20
2018-09-12T08:24:56.254Z,24.40
2018-09-12T08:27:24.646Z,25.10
2018-09-12T08:29:53.005Z,24.60
2018-09-12T08:32:21.423Z,25.90
2018-09-12T08:34:49.818Z,27.60
2018-09-12T08:37:18.311Z,27.50
2018-09-12T08:39:46.734Z,28.20
2018-09-12T08:42:15.373Z,27.60
2018-09-12T08:44:43.761Z,27.30
2018-09-12T08:47:12.210Z,26.50
2018-09-12T08:49:40.648Z,26.60
2018-09-12T08:52:08.994Z,27.30
2018-09-12T08:54:37.344Z,27.10
2018-09-12T08:57:05.784Z,28.50
2018-09-12T08:59:34.303Z,28.70
2018-09-12T09:02:02.737Z,28.50
2018-09-12T09:04:31.306Z,27.80
2018-09-12T09:06:59.702Z,27.50
2018-09-12T09:09:28.100Z,28.10
2018-09-12T09:11:56.741Z,27.60
2018-09-12T09:14:25.333Z,28.10
2018-09-12T09:16:53.712Z,27.50
2018-09-12T09:19:22.200Z,27.70
2018-09-12T09:21:50.597Z,28.60
2018-09-12T09:24:18.954Z,29.30
2018-09-12T09:26:47.379Z,29.40
2018-09-12T09:29:15.860Z,29.30
2018-09-12T09:31:44.461Z,30.10
2018-09-12T09:34:12.802Z,29.90
2018-09-12T09:36:41.262Z,29.10
2018-09-12T09:39:11.159Z,29.10
2018-09-12T09:41:39.785Z,28.80
2018-09-12T09:44:08.156Z,30.40
2018-09-12T09:46:36.533Z,30.90
2018-09-12T09:49:05.182Z,29.70
2018-09-12T09:51:33.639Z,29.90
2018-09-12T09:54:02.062Z,32.50
2018-09-12T09:56:30.477Z,32.00
2018-09-12T09:58:58.869Z,32.60
2018-09-12T10:01:32.580Z,32.40
2018-09-12T10:04:06.355Z,32.90
2018-09-12T10:06:40.029Z,33.40
2018-09-12T10:09:14.463Z,31.40
2018-09-12T10:11:43.538Z,32.00
2018-09-12T10:14:11.835Z,32.40
2018-09-12T10:16:40.272Z,32.00
2018-09-12T10:19:08.704Z,31.40
2018-09-12T10:21:37.374Z,31.60
2018-09-12T10:24:06.021Z,30.50
2018-09-12T10:26:34.338Z,30.00
2018-09-12T10:29:02.697Z,30.80
2018-09-12T10:31:31.130Z,30.20
2018-09-12T10:33:59.505Z,31.00
2018-09-12T10:36:27.949Z,33.00
2018-09-12T10:38:56.316Z,33.90
2018-09-12T10:41:24.902Z,34.30
2018-09-12T10:43:53.426Z,32.80
2018-09-12T10:46:21.889Z,33.40
2018-09-12T10:48:50.233Z,34.20
2018-09-12T10:51:18.837Z,35.10
2018-09-12T10:53:47.285Z,34.50
2018-09-12T10:56:15.739Z,34.60
2018-09-12T10:58:44.074Z,33.90
2018-09-12T11:01:12.545Z,33.60
2018-09-12T11:03:41.018Z,32.90
2018-09-12T11:06:09.410Z,32.60
2018-09-12T11:08:37.761Z,32.50
2018-09-12T11:11:06.337Z,32.70
2018-09-12T11:13:34.720Z,31.80
2018-09-12T11:16:03.329Z,31.40
2018-09-12T11:18:31.986Z,30.90
2018-09-12T11:21:00.361Z,30.60
2018-09-12T11:23:28.727Z,31.60
2018-09-12T11:25:57.042Z,33.10
2018-09-12T11:28:27.461Z,32.80
2018-09-12T11:30:55.753Z,32.00
2018-09-12T11:33:24.126Z,31.50
2018-09-12T11:35:52.563Z,31.00
2018-09-12T11:38:21.353Z,31.10
2018-09-12T11:40:49.739Z,31.20
2018-09-12T11:43:18.037Z,30.90
2018-09-12T11:45:46.546Z,30.80
2018-09-12T11:48:15.216Z,32.50
2018-09-12T11:50:43.566Z,32.00
2018-09-12T11:53:11.938Z,31.60
2018-09-12T11:55:40.282Z,31.80
2018-09-12T11:58:08.593Z,32.80
2018-09-12T12:00:37.049Z,32.30
2018-09-12T12:03:05.725Z,31.40
2018-09-12T12:05:34.317Z,30.70
2018-09-12T12:08:02.654Z,31.10
2018-09-12T12:10:31.098Z,31.30
2018-09-12T12:12:59.639Z,31.60
2018-09-12T12:15:28.156Z,30.90
2018-09-12T12:17:56.443Z,30.50
2018-09-12T12:20:24.767Z,30.20
2018-09-12T12:22:53.242Z,30.60
2018-09-12T12:25:21.668Z,29.90
2018-09-12T12:27:50.023Z,30.30
2018-09-12T12:30:19.459Z,30.70
2018-09-12T12:32:47.805Z,32.10
2018-09-12T12:35:16.140Z,32.90
2018-09-12T12:37:44.646Z,32.10
2018-09-12T12:40:13.005Z,31.30
2018-09-12T12:42:41.389Z,32.30
2018-09-12T12:45:09.733Z,33.80
2018-09-12T12:47:38.247Z,34.20
2018-09-12T12:50:06.894Z,33.60
2018-09-12T12:52:35.250Z,32.80
2018-09-12T12:55:03.734Z,31.80
2018-09-12T12:57:32.214Z,30.60
2018-09-12T13:00:00.577Z,30.70
2018-09-12T13:02:28.957Z,31.40
2018-09-12T13:04:57.444Z,31.40
2018-09-12T13:07:25.921Z,32.40
2018-09-12T13:09:54.295Z,32.80
2018-09-12T13:12:22.642Z,33.10
2018-09-12T13:14:50.994Z,33.10
2018-09-12T13:17:19.403Z,31.70
2018-09-12T13:19:48.110Z,30.80
2018-09-12T13:22:16.450Z,30.50
2018-09-12T13:24:44.819Z,31.40
2018-09-12T13:27:13.221Z,33.50
2018-09-12T13:29:41.554Z,33.60
2018-09-12T13:32:09.884Z,34.20
2018-09-12T13:34:38.311Z,34.60
2018-09-12T13:37:06.603Z,34.90
2018-09-12T13:39:34.962Z,33.30
2018-09-12T13:42:03.375Z,32.60
2018-09-12T13:44:31.784Z,31.40
2018-09-12T13:47:00.078Z,30.60
2018-09-12T13:49:28.533Z,31.10
2018-09-12T13:51:56.892Z,31.60
2018-09-12T13:54:25.298Z,31.60
2018-09-12T13:56:53.776Z,32.40
2018-09-12T13:59:22.105Z,32.90
2018-09-12T14:01:50.551Z,33.10
2018-09-12T14:04:19.203Z,32.40
2018-09-12T14:06:47.857Z,33.60
2018-09-12T14:09:16.203Z,33.90
2018-09-12T14:11:44.637Z,33.50
2018-09-12T14:14:13.047Z,33.50
2018-09-12T14:16:41.519Z,33.00
2018-09-12T14:19:09.879Z,32.40
2018-09-12T14:21:38.422Z,33.50
2018-09-12T14:24:06.909Z,33.80
2018-09-12T14:26:35.415Z,33.20
2018-09-12T14:29:03.818Z,34.10
2018-09-12T14:31:32.164Z,32.50
2018-09-12T14:34:00.692Z,31.50
2018-09-12T14:36:29.315Z,32.70
2018-09-12T14:38:57.627Z,32.20
2018-09-12T14:41:26.080Z,33.40
2018-09-12T14:43:54.486Z,32.00
2018-09-12T14:46:23.021Z,30.90
2018-09-12T14:48:51.440Z,31.10
2018-09-12T14:51:19.805Z,32.80
2018-09-12T14:53:48.166Z,32.10
2018-09-12T14:56:16.595Z,31.40
2018-09-12T14:58:44.962Z,31.20
2018-09-12T15:01:13.313Z,31.30
2018-09-12T15:03:41.781Z,32.00
2018-09-12T15:06:10.234Z,32.40
2018-09-12T15:08:38.661Z,32.50
2018-09-12T15:11:06.986Z,32.50
2018-09-12T15:13:35.534Z,32.20
2018-09-12T15:16:03.991Z,31.70
2018-09-12T15:18:32.589Z,31.60
2018-09-12T15:21:00.938Z,31.80
2018-09-12T15:23:29.306Z,31.60
2018-09-12T15:25:57.748Z,31.50
2018-09-12T15:28:26.135Z,30.30
2018-09-12T15:30:54.570Z,30.10
2018-09-12T15:33:22.949Z,30.10
2018-09-12T15:35:51.429Z,30.00
2018-09-12T15:38:19.775Z,29.90
2018-09-12T15:40:48.651Z,29.70
2018-09-12T15:43:16.979Z,29.60
2018-09-12T15:45:45.572Z,30.00
2018-09-12T15:48:13.984Z,30.10
2018-09-12T15:50:42.328Z,30.00
2018-09-12T15:53:10.760Z,29.80
2018-09-12T15:55:40.455Z,29.70
2018-09-12T15:58:08.799Z,29.60
2018-09-12T16:00:37.313Z,29.60
2018-09-12T16:03:05.819Z,29.80
2018-09-12T16:05:34.156Z,29.70
2018-09-12T16:08:02.617Z,29.70
2018-09-12T16:10:30.976Z,29.60
2018-09-12T16:12:59.351Z,29.70
2018-09-12T16:15:27.907Z,29.40
2018-09-12T16:17:56.434Z,29.40
2018-09-12T16:20:25.118Z,29.20
2018-09-12T16:22:53.432Z,29.20
2018-09-12T16:25:21.833Z,29.10
2018-09-12T16:27:50.225Z,29.10
2018-09-12T16:30:18.762Z,29.00
2018-09-12T16:32:47.221Z,29.00
2018-09-12T16:35:15.429Z,28.90
2018-09-12T16:37:43.785Z,28.90
2018-09-12T16:40:12.225Z,28.90
2018-09-12T16:42:40.632Z,28.90
2018-09-12T16:45:08.950Z,28.90
2018-09-12T16:47:37.325Z,28.60
2018-09-12T16:50:06.000Z,28.60
2018-09-12T16:52:34.372Z,28.60
2018-09-12T16:55:02.724Z,28.40
2018-09-12T16:57:31.086Z,28.40
2018-09-12T16:59:59.405Z,28.30
2018-09-12T17:02:28.058Z,28.30
2018-09-12T17:04:56.681Z,28.20
2018-09-12T17:07:25.129Z,28.20
2018-09-12T17:09:53.466Z,28.10
2018-09-12T17:12:21.818Z,28.10
2018-09-12T17:14:50.195Z,28.00
2018-09-12T17:17:18.855Z,27.90
2018-09-12T17:19:47.362Z,27.80
2018-09-12T17:22:15.901Z,27.80
2018-09-12T17:24:44.314Z,27.80
2018-09-12T17:27:12.808Z,27.60
2018-09-12T17:29:41.398Z,27.50
2018-09-12T17:32:09.977Z,27.50
2018-09-12T17:34:38.479Z,27.40
2018-09-12T17:37:06.810Z,27.40
2018-09-12T17:39:35.202Z,27.30
2018-09-12T17:42:03.578Z,27.30
2018-09-12T17:44:31.957Z,27.30
2018-09-12T17:47:00.324Z,27.20
2018-09-12T17:49:28.893Z,27.20
2018-09-12T17:51:57.306Z,26.90
2018-09-12T17:54:25.844Z,26.60
2018-09-12T17:56:54.261Z,26.60
2018-09-12T17:59:22.659Z,26.60
2018-09-12T18:01:51.014Z,26.90
2018-09-12T18:04:19.698Z,27.10
2018-09-12T18:06:48.224Z,27.00
2018-09-12T18:09:16.632Z,26.60
2018-09-12T18:11:45.053Z,26.70
2018-09-12T18:14:13.478Z,26.70
2018-09-12T18:16:42.042Z,26.70
2018-09-12T18:19:10.590Z,26.70
2018-09-12T18:21:39.123Z,26.70
2018-09-12T18:24:07.871Z,26.70
2018-09-12T18:26:36.338Z,26.60
2018-09-12T18:29:04.693Z,26.70
2018-09-12T18:31:33.090Z,26.70
2018-09-12T18:34:01.489Z,26.50
2018-09-12T18:36:30.142Z,26.40
2018-09-12T18:38:58.553Z,26.30
2018-09-12T18:41:26.952Z,26.20
2018-09-12T18:43:55.364Z,26.20
2018-09-12T18:46:23.903Z,26.20
2018-09-12T18:48:52.358Z,26.20
2018-09-12T18:51:20.823Z,26.20
2018-09-12T18:53:50.308Z,26.10
2018-09-12T18:56:18.687Z,25.90
2018-09-12T18:58:47.081Z,25.70
2018-09-12T19:01:15.541Z,25.50
2018-09-12T19:03:43.901Z,25.30
2018-09-12T19:06:12.482Z,25.20
2018-09-12T19:08:40.916Z,25.40
2018-09-12T19:11:09.530Z,25.40
2018-09-12T19:13:44.514Z,25.50
2018-09-12T19:16:13.113Z,25.50
2018-09-12T19:18:41.526Z,25.40
2018-09-12T19:21:10.123Z,25.40
2018-09-12T19:23:38.538Z,25.20
2018-09-12T19:26:06.991Z,25.20
2018-09-12T19:28:35.528Z,24.90
2018-09-12T19:31:03.961Z,24.50
2018-09-12T19:33:32.501Z,24.50
2018-09-12T19:36:01.282Z,24.50
2018-09-12T19:38:29.657Z,24.20
2018-09-12T19:40:58.168Z,24.30
2018-09-12T19:43:26.630Z,24.60
2018-09-12T19:45:54.984Z,24.70
2018-09-12T19:48:23.394Z,24.70
2018-09-12T19:50:51.874Z,24.60
2018-09-12T19:53:20.246Z,24.60
2018-09-12T19:55:48.666Z,24.60
2018-09-12T19:58:17.042Z,24.60
2018-09-12T20:00:45.422Z,24.60
2018-09-12T20:03:14.745Z,24.50
2018-09-12T20:05:43.395Z,24.30
2018-09-12T20:08:11.838Z,24.50
2018-09-12T20:10:40.274Z,24.60
2018-09-12T20:13:08.854Z,24.70
2018-09-12T20:15:37.326Z,24.60
2018-09-12T20:18:05.762Z,24.60
2018-09-12T20:20:34.399Z,24.60
2018-09-12T20:23:02.719Z,24.30
2018-09-12T20:25:31.082Z,24.20
2018-09-12T20:27:59.446Z,24.30
2018-09-12T20:30:27.909Z,24.40
2018-09-12T20:32:56.346Z,24.30
2018-09-12T20:35:24.817Z,24.00
2018-09-12T20:37:53.354Z,23.90
2018-09-12T20:40:21.871Z,23.80
2018-09-12T20:42:50.293Z,23.60
2018-09-12T20:45:18.740Z,23.30
2018-09-12T20:47:47.197Z,22.80
2018-09-12T20:50:15.650Z,22.30
2018-09-12T20:52:44.174Z,22.00
2018-09-12T20:55:12.493Z,21.80
2018-09-12T20:57:40.899Z,21.60
2018-09-12T21:00:09.434Z,21.50
2018-09-12T21:02:38.208Z,21.50
2018-09-12T21:05:06.517Z,21.40
2018-09-12T21:07:35.047Z,21.40
2018-09-12T21:10:03.665Z,21.40
2018-09-12T21:12:32.114Z,21.30
2018-09-12T21:15:00.494Z,21.40
2018-09-12T21:17:28.850Z,21.40
2018-09-12T21:19:57.370Z,21.30
2018-09-12T21:22:25.843Z,21.20
2018-09-12T21:24:54.227Z,21.10
2018-09-12T21:27:22.731Z,21.00
2018-09-12T21:29:51.226Z,21.10
2018-09-12T21:32:19.664Z,21.00
2018-09-12T21:34:48.070Z,21.00
2018-09-12T21:37:16.454Z,21.10
2018-09-12T21:39:44.907Z,21.10
2018-09-12T21:42:13.389Z,20.60
2018-09-12T21:44:41.950Z,20.40
2018-09-12T21:47:10.331Z,20.50
2018-09-12T21:49:38.826Z,20.30
2018-09-12T21:52:07.269Z,20.20
2018-09-12T21:54:35.630Z,20.60
2018-09-12T21:57:03.973Z,20.90
2018-09-12T21:59:32.510Z,20.90
2018-09-12T22:02:00.930Z,20.90
2018-09-12T22:04:29.810Z,20.80
2018-09-12T22:06:58.860Z,20.70
2018-09-12T22:09:27.797Z,20.60
2018-09-12T22:11:56.190Z,20.70
2018-09-12T22:14:24.545Z,20.60
2018-09-12T22:16:53.140Z,20.60
2018-09-12T22:19:21.548Z,20.60
2018-09-12T22:21:50.098Z,20.70
2018-09-12T22:24:18.751Z,20.80
2018-09-12T22:26:47.402Z,20.30
2018-09-12T22:29:15.736Z,19.90
2018-09-12T22:31:44.291Z,19.70
2018-09-12T22:34:12.603Z,19.60
2018-09-12T22:36:41.138Z,19.60
2018-09-12T22:39:11.029Z,19.90
2018-09-12T22:41:39.752Z,20.20
2018-09-12T22:44:08.294Z,20.30
2018-09-12T22:46:36.845Z,20.30
2018-09-12T22:49:05.189Z,19.90
2018-09-12T22:51:33.577Z,19.70
2018-09-12T22:54:01.998Z,19.60
2018-09-12T22:56:30.447Z,19.60
2018-09-12T22:58:59.174Z,19.50
2018-09-12T23:01:27.698Z,19.80
2018-09-12T23:03:56.060Z,20.00
2018-09-12T23:06:24.445Z,20.00
2018-09-12T23:08:52.874Z,20.10
2018-09-12T23:11:21.224Z,20.10
2018-09-12T23:13:49.681Z,20.00
2018-09-12T23:16:17.998Z,19.80
2018-09-12T23:18:46.462Z,19.80
2018-09-12T23:21:14.789Z,19.80
2018-09-12T23:23:43.168Z,19.50
2018-09-12T23:26:11.516Z,19.20
2018-09-12T23:28:39.941Z,19.20
2018-09-12T23:31:08.290Z,19.10
2018-09-12T23:33:36.749Z,19.40
2018-09-12T23:36:05.297Z,19.30
2018-09-12T23:38:33.700Z,19.50
2018-09-12T23:41:02.042Z,19.60
2018-09-12T23:43:30.372Z,19.70
2018-09-12T23:45:58.788Z,19.60
2018-09-12T23:48:27.181Z,19.60
2018-09-12T23:50:55.486Z,19.60
2018-09-12T23:53:23.829Z,19.60
2018-09-12T23:55:52.185Z,19.60
2018-09-12T23:58:20.598Z,19.70
